AirNav   Duncan Aviation - Near you to keep you flying
 
 1518 users online  

9A0 Lumpkin County-Wimpys Airport
Dahlonega, Georgia, USA

GOING TO DAHLONEGA?


FAA INFORMATION EFFECTIVE 09 SEPTEMBER 2021

Location

FAA Identifier: 9A0
Lat/Long: 34-34-59.1300N 084-01-11.8500W
34-34.985500N 084-01.197500W
34.5830917,-84.0199583
(estimated)
Elevation: 1328.8 ft. / 405 m (estimated)
Variation: 03W (1985)
From city: 3 miles NW of DAHLONEGA, GA
Time zone: UTC -4 (UTC -5 during Standard Time)
Zip code: 30533

Airport Operations

Airport use: Open to the public
Activation date: 08/1956
Control tower: no
ARTCC: ATLANTA CENTER
FSS: MACON FLIGHT SERVICE STATION
NOTAMs facility: MCN (NOTAM-D service available)
Attendance: UNATNDD
Wind indicator: yes
Segmented circle: no

Airport Communications

CTAF: 122.9
WX AWOS-3PT at DZJ (16 nm N): 119.325 (706-745-9271)

Nearby radio navigation aids

VOR radial/distance  VOR name  Freq  Var
HRSr193/22.2HARRIS VORTAC109.8000E
ODFr259/36.3FOOTHILLS VOR/DME113.4000E

 
NDB name  Hdg/Dist  Freq  Var  ID
FLOWERY BRANCH349/23.536503WFKV ..-. -.- ...-
CHERO054/30.541505WDJD -.. .--- -..

Airport Services

Fuel available: 100LL
100LL:24 HOUR SELF SERVE WITH CREDIT CARD.
Parking: tiedowns
Airframe service: NONE
Powerplant service: NONE
Bottled oxygen: NONE
Bulk oxygen: NONE

Runway Information

Runway 15/33

Dimensions: 3024 x 50 ft. / 922 x 15 m
Surface: asphalt, in good condition
Weight bearing capacity: 
Single wheel: 12.0
RUNWAY 15  RUNWAY 33
Latitude: 34-35.201667N34-34.769333N
Longitude: 084-01.347667W084-01.047333W
Elevation: 1328.8 ft.1308.2 ft.
Traffic pattern: leftleft
Runway heading: 153 magnetic, 150 true333 magnetic, 330 true
Displaced threshold: 681 ft.693 ft.
Markings: basic, in fair conditionbasic, in fair condition
Obstructions: 173 ft. trees, 1411 ft. from runway, 225 ft. left of centerline, 7:1 slope to clear
13:1 APCH SLP TO DSPLCD THLD, TREES 2469 FT OUT & 120 FT LEFT.
113 ft. trees, 1330 ft. from runway, 200 ft. left of centerline, 10:1 slope to clear
APCH SLOPE 25:1 TO DSPLCD THLD, TREELINE 2,325 FROM DSPLCD THLD.

Airport Ownership and Management from official FAA records

Ownership: Publicly-owned
Owner: LUMPKIN COUNTY AIRPORT AUTHORITY
99 COURTHOUSE HILL, SUITE H
DAHLONEGA, GA 30533
Phone (706) 265-0284
Manager: JIMMY BERRONG
99 COURTHOUSE HILL, SUITE H
DAHLONEGA, GA 30533
Phone (706) 265-0284
AIRPORT ADDRESS: 1682 CAMP WAHSEGA RD

Airport Operational Statistics

Aircraft based on the field: 30
Single engine airplanes: 30
    
Aircraft operations: avg 107/week *
54% local general aviation
36% transient general aviation
11% military
* for 12-month period ending 31 December 2020

Additional Remarks

ARPT CLSD TO ACFT AT NIGHT, DAYTIME USE ONLY.
DEER & WILDLIFE ON OR INVOF ARPT.
FOR CD CTC ATLANTA ARTCC AT 770-210-7692.

Instrument Procedures

There are no published instrument procedures at 9A0.

Some nearby airports with instrument procedures:

KDZJ - Blairsville Airport (16 nm N)
KGVL - Lee Gilmer Memorial Airport (21 nm SE)
KJZP - Pickens County Airport (23 nm W)
KAJR - Habersham County Airport (23 nm E)
49A - Gilmer County Airport (25 nm W)
 
Loc | Ops | Rwys | IFR | FBO | Links
Com | Nav | Svcs | Stats | Notes
Area around 9A0 (Lumpkin County-Wimpys Airport)
 
Road maps at: MapQuest Bing Google
 
Aerial photo
WARNING: Photo may not be current or correct
Aerial photo of 9A0 (Lumpkin County-Wimpys Airport)
Photo by Jerry Morris
Photo taken 17-Sep-2015
looking south.

Do you have a better or more recent aerial photo of Lumpkin County-Wimpys Airport that you would like to share? If so, please send us your photo.

 
Sectional chart

 
Airport distance calculator
Flying to Lumpkin County-Wimpys Airport? Find the distance to fly.

From to 9A0

Sunrise and sunset
Times for 24-Sep-2021
 Local
(UTC-4)
 Zulu
(UTC)
Morning civil twilight07:0111:01
Sunrise07:2711:27
Sunset19:3023:30
Evening civil twilight19:5523:55

Current date and time
Zulu (UTC)  24-Sep-2021 18:44:48
Local (UTC-4)  24-Sep-2021 14:44:48
 
METAR
KDZJ 
16nm N 
241835Z AUTO 08007KT 10SM CLR 21/11 A3014 RMK AO2 T02150106
KGVL 
21nm SE 
241753Z AUTO VRB04KT 10SM CLR 23/08 A3015 RMK AO2 SLP198 T02280083 10228 20117 58009
KJZP 
23nm W 
241835Z AUTO 00000KT 10SM CLR 21/09 A3016 RMK AO2 T02130091
KAJR 
23nm E 
241835Z AUTO 00000KT 10SM SCT045 23/08 A3012 RMK AO2 T02260084
K49A 
25nm W 
241835Z AUTO 29003KT 10SM SCT044 22/11 A3015 RMK AO2 T02200109
KCNI 
26nm SW 
241835Z AUTO 00000KT 10SM CLR 22/07 A3013 RMK AO2
TAF
KPDK 
44nm S 
241735Z 2418/2518 06005KT P6SM SKC FM250300 06003KT P6SM SKC FM251400 30006KT P6SM SCT150
KRYY 
45nm SW 
241735Z 2418/2518 06005KT P6SM SKC FM250300 06003KT P6SM SKC FM251400 30006KT P6SM SCT150
KMGE 
47nm SW 
241300Z 2413/2519 VRB06KT 9999 SKC QNH3012INS BECMG 2415/2416 06006KT 9999 FEW040 QNH3006INS BECMG 2423/2424 VRB06KT 9999 SKC QNH3008INS BECMG 2515/2516 30006KT 9999 FEW050 BKN250 QNH3007INS TX24/2421Z TN11/2512Z
NOTAMs
Click for the latest NOTAMs
NOTAMs are issued by the DoD/FAA and will open in a separate window not controlled by AirNav.

 

 
 

FBO, Fuel Providers, and Aircraft Ground Support

  
 Business Name 
 
 Contact 
 
 Services / Description 
 
Fuel Prices
 
Comments
  
Lumpkin County-Wimpy's Airport 706-265-0284
no information available

If you are affiliated with Lumpkin County-Wimpy's Airport and would like to show here your services, contact info, web link, logo, and more, click here
100LL
SS $4.95 
 Updated 16-Sep-2021
 
   write
SS=Self service
Update Fuel Prices
 

Would you like to see your business listed on this page?

 If your business provides an interesting product or service to pilots, flight crews, aircraft, or users of the Lumpkin County-Wimpys Airport, you should consider listing it here.  To start the listing process, click on the button below
 
Add a business
 

Other Pages about Lumpkin County-Wimpys Airport

Update a link
 
Copyright © AirNav, LLC. All rights reserved. Privacy Policy  Contact